createdAt,value
2017-12-31T00:00:56.022Z,7.59
2017-12-31T00:01:56.430Z,7.58
2017-12-31T00:02:56.060Z,7.51
2017-12-31T00:03:55.894Z,7.54
2017-12-31T00:04:55.956Z,7.54
2017-12-31T00:05:56.451Z,7.51
2017-12-31T00:06:56.288Z,7.52
2017-12-31T00:07:56.286Z,7.48
2017-12-31T00:08:56.527Z,7.47
2017-12-31T00:09:57.005Z,7.45
2017-12-31T00:10:57.034Z,7.44
2017-12-31T00:11:57.461Z,7.49
2017-12-31T00:12:57.522Z,7.48
2017-12-31T00:13:57.934Z,7.52
2017-12-31T00:14:57.713Z,7.52
2017-12-31T00:15:57.956Z,7.52
2017-12-31T00:16:57.761Z,7.52
2017-12-31T00:17:57.511Z,7.64
2017-12-31T00:18:58.745Z,7.64
2017-12-31T00:19:58.813Z,7.64
2017-12-31T00:20:58.376Z,7.78
2017-12-31T00:21:58.327Z,7.75
2017-12-31T00:22:58.022Z,7.75
2017-12-31T00:23:58.601Z,7.77
2017-12-31T00:24:58.420Z,7.85
2017-12-31T00:25:58.706Z,7.77
2017-12-31T00:26:58.342Z,7.85
2017-12-31T00:27:58.313Z,7.77
2017-12-31T00:28:59.131Z,7.74
2017-12-31T00:29:59.381Z,7.78
2017-12-31T00:30:58.850Z,7.82
2017-12-31T00:31:58.884Z,7.8
2017-12-31T00:32:58.819Z,7.82
2017-12-31T00:33:59.079Z,7.83
2017-12-31T00:34:58.928Z,7.83
2017-12-31T00:35:59.126Z,7.85
2017-12-31T00:36:58.920Z,7.85
2017-12-31T00:37:59.328Z,7.85
2017-12-31T00:38:59.759Z,7.82
2017-12-31T00:40:00.285Z,7.83
2017-12-31T00:41:00.489Z,7.82
2017-12-31T00:42:00.244Z,7.8
2017-12-31T00:43:00.691Z,7.74
2017-12-31T00:44:01.148Z,7.71
2017-12-31T00:45:01.092Z,7.77
2017-12-31T00:46:01.044Z,7.73
2017-12-31T00:47:01.385Z,7.67
2017-12-31T00:48:01.915Z,7.7
2017-12-31T00:49:01.681Z,7.74
2017-12-31T00:50:01.859Z,7.74
2017-12-31T00:51:02.016Z,7.75
2017-12-31T00:52:02.460Z,7.7
2017-12-31T00:53:02.949Z,7.74
2017-12-31T00:54:02.754Z,7.68
2017-12-31T00:55:03.211Z,7.73
2017-12-31T00:56:03.479Z,7.7
2017-12-31T00:57:03.983Z,7.75
2017-12-31T00:58:03.519Z,7.71
2017-12-31T00:59:04.569Z,7.71
2017-12-31T01:00:04.460Z,7.75
2017-12-31T01:01:04.613Z,7.71
2017-12-31T01:02:04.924Z,7.74
2017-12-31T01:03:04.802Z,7.73
2017-12-31T01:04:05.108Z,7.74
2017-12-31T01:05:05.024Z,7.74
2017-12-31T01:06:05.221Z,7.7
2017-12-31T01:07:05.023Z,7.67
2017-12-31T01:08:04.752Z,7.67
2017-12-31T01:09:05.067Z,7.78
2017-12-31T01:10:05.502Z,7.64
2017-12-31T01:11:04.970Z,7.73
2017-12-31T01:12:05.503Z,7.74
2017-12-31T01:13:05.609Z,7.67
2017-12-31T01:14:05.385Z,7.73
2017-12-31T01:15:05.379Z,7.73
2017-12-31T01:16:05.704Z,7.78
2017-12-31T01:17:05.975Z,7.75
2017-12-31T01:18:06.447Z,7.74
2017-12-31T01:19:07.101Z,7.63
2017-12-31T01:20:07.103Z,7.61
2017-12-31T01:21:07.315Z,7.63
2017-12-31T01:22:07.310Z,7.55
2017-12-31T01:23:07.481Z,7.56
2017-12-31T01:24:07.756Z,7.51
2017-12-31T01:25:07.582Z,7.55
2017-12-31T01:26:07.804Z,7.39
2017-12-31T01:27:08.115Z,7.44
2017-12-31T01:28:08.203Z,7.56
2017-12-31T01:29:08.143Z,7.52
2017-12-31T01:30:08.434Z,7.36
2017-12-31T01:31:08.180Z,7.45
2017-12-31T01:32:08.126Z,7.36
2017-12-31T01:33:08.283Z,7.41
2017-12-31T01:34:08.575Z,7.37
2017-12-31T01:35:08.293Z,7.36
2017-12-31T01:36:08.556Z,7.33
2017-12-31T01:37:08.354Z,7.33
2017-12-31T01:38:08.100Z,7.33
2017-12-31T01:39:08.316Z,7.39
2017-12-31T01:40:08.604Z,7.34
2017-12-31T01:41:09.311Z,7.34
2017-12-31T01:42:08.940Z,7.34
2017-12-31T01:43:08.787Z,7.37
2017-12-31T01:44:09.873Z,7.33
2017-12-31T01:45:09.981Z,7.4
2017-12-31T01:46:16.130Z,7.3
2017-12-31T01:47:17.143Z,7.36
2017-12-31T01:48:16.217Z,7.45
2017-12-31T01:49:16.375Z,7.34
2017-12-31T01:50:16.314Z,7.37
2017-12-31T01:51:16.726Z,7.41
2017-12-31T01:52:17.007Z,7.44
2017-12-31T01:53:16.863Z,7.41
2017-12-31T01:54:16.629Z,7.47
2017-12-31T01:55:16.904Z,7.31
2017-12-31T01:56:17.051Z,7.34
2017-12-31T01:57:17.455Z,7.36
2017-12-31T01:58:17.195Z,7.37
2017-12-31T01:59:17.234Z,7.29
2017-12-31T02:00:17.417Z,7.33
2017-12-31T02:01:17.784Z,7.19
2017-12-31T02:02:17.867Z,7.22
2017-12-31T02:03:18.217Z,7.23
2017-12-31T02:04:17.619Z,7.22
2017-12-31T02:05:17.667Z,7.21
2017-12-31T02:06:19.393Z,7.27
2017-12-31T02:07:18.644Z,7.23
2017-12-31T02:08:18.728Z,7.23
2017-12-31T02:09:18.403Z,7.22
2017-12-31T02:10:18.831Z,7.15
2017-12-31T02:11:19.540Z,7.12
2017-12-31T02:12:19.338Z,7.05
2017-12-31T02:13:19.355Z,7.04
2017-12-31T02:14:19.574Z,7.08
2017-12-31T02:15:20.021Z,6.91
2017-12-31T02:16:19.817Z,6.98
2017-12-31T02:17:19.432Z,6.94
2017-12-31T02:18:19.837Z,7.04
2017-12-31T02:19:21.116Z,6.94
2017-12-31T02:20:20.776Z,7.01
2017-12-31T02:21:20.051Z,6.94
2017-12-31T02:22:20.676Z,7.04
2017-12-31T02:23:20.858Z,7.03
2017-12-31T02:24:20.394Z,7.08
2017-12-31T02:25:20.709Z,7.05
2017-12-31T02:26:21.119Z,7.03
2017-12-31T02:27:20.544Z,7.12
2017-12-31T02:28:22.599Z,7.13
2017-12-31T02:29:21.753Z,7.18
2017-12-31T02:30:21.698Z,7.11
2017-12-31T02:31:22.016Z,7.19
2017-12-31T02:32:22.843Z,7.16
2017-12-31T02:33:22.226Z,7.19
2017-12-31T02:34:22.075Z,7.16
2017-12-31T02:36:27.397Z,7.15
2017-12-31T02:37:27.808Z,7.21
2017-12-31T02:38:27.791Z,7.13
2017-12-31T02:39:27.796Z,7.15
2017-12-31T02:40:27.437Z,7.12
2017-12-31T02:41:27.707Z,7.08
2017-12-31T02:42:28.120Z,7.03
2017-12-31T02:43:28.371Z,7.03
2017-12-31T02:44:28.554Z,7.03
2017-12-31T02:45:28.297Z,6.98
2017-12-31T02:46:28.077Z,6.88
2017-12-31T02:47:28.423Z,6.8
2017-12-31T02:48:29.116Z,6.79
2017-12-31T02:49:28.971Z,6.73
2017-12-31T02:50:29.261Z,6.72
2017-12-31T02:51:29.376Z,6.68
2017-12-31T02:52:29.157Z,6.64
2017-12-31T02:53:29.718Z,6.65
2017-12-31T02:54:30.116Z,6.62
2017-12-31T02:55:30.297Z,6.61
2017-12-31T02:56:30.536Z,6.57
2017-12-31T02:57:30.542Z,6.51
2017-12-31T02:58:30.924Z,6.44
2017-12-31T02:59:30.783Z,6.42
2017-12-31T03:00:31.343Z,6.39
2017-12-31T03:01:31.386Z,6.4
2017-12-31T03:02:31.427Z,6.25
2017-12-31T03:03:31.137Z,6.25
2017-12-31T03:04:31.466Z,6.28
2017-12-31T03:05:31.528Z,6.39
2017-12-31T03:06:31.666Z,6.4
2017-12-31T03:07:32.271Z,6.36
2017-12-31T03:08:33.269Z,6.4
2017-12-31T03:09:32.458Z,6.4
2017-12-31T03:10:33.115Z,6.4
2017-12-31T03:11:33.109Z,6.44
2017-12-31T03:12:33.263Z,6.46
2017-12-31T03:13:33.015Z,6.43
2017-12-31T03:14:33.365Z,6.37
2017-12-31T03:15:33.426Z,6.42
2017-12-31T03:16:33.783Z,6.33
2017-12-31T03:17:34.168Z,6.34
2017-12-31T03:18:34.115Z,6.28
2017-12-31T03:19:34.527Z,6.26
2017-12-31T03:20:34.904Z,6.26
2017-12-31T03:21:34.951Z,6.21
2017-12-31T03:22:34.659Z,6.21
2017-12-31T03:23:34.780Z,6.26
2017-12-31T03:24:34.873Z,6.28
2017-12-31T03:25:34.761Z,6.37
2017-12-31T03:26:35.043Z,6.37
2017-12-31T03:27:35.345Z,6.33
2017-12-31T03:28:35.416Z,6.17
2017-12-31T03:29:35.159Z,6.21
2017-12-31T03:30:35.550Z,6.29
2017-12-31T03:31:35.189Z,6.25
2017-12-31T03:32:35.683Z,6.18
2017-12-31T03:33:36.049Z,6.18
2017-12-31T03:34:36.131Z,6.18
2017-12-31T03:35:36.014Z,6.13
2017-12-31T03:36:36.542Z,6.18
2017-12-31T03:37:36.795Z,6.17
2017-12-31T03:38:36.757Z,6.18
2017-12-31T03:39:37.464Z,6.14
2017-12-31T03:40:37.708Z,6.14
2017-12-31T03:41:38.275Z,6.14
2017-12-31T03:42:37.654Z,6.17
2017-12-31T03:43:37.720Z,6.13
2017-12-31T03:44:37.433Z,6.1
2017-12-31T03:45:37.798Z,6.13
2017-12-31T03:46:37.969Z,6.1
2017-12-31T03:47:37.972Z,6.13
2017-12-31T03:48:38.044Z,6.1
2017-12-31T03:49:38.024Z,6.06
2017-12-31T03:50:38.956Z,6.09
2017-12-31T03:51:37.815Z,6.03
2017-12-31T03:52:38.121Z,6.06
2017-12-31T03:53:38.147Z,6
2017-12-31T03:54:38.246Z,5.87
2017-12-31T03:55:38.120Z,5.88
2017-12-31T03:56:38.297Z,5.82
2017-12-31T03:57:39.437Z,5.88
2017-12-31T03:58:38.655Z,5.92
2017-12-31T03:59:38.980Z,5.85
2017-12-31T04:00:39.117Z,5.88
2017-12-31T04:01:39.474Z,5.84
2017-12-31T04:02:38.998Z,5.81
2017-12-31T04:03:39.708Z,5.77
2017-12-31T04:04:39.685Z,5.77
2017-12-31T04:05:40.539Z,5.73
2017-12-31T04:06:40.649Z,5.6
2017-12-31T04:07:39.381Z,5.66
2017-12-31T04:08:39.743Z,5.73
2017-12-31T04:09:39.745Z,5.63
2017-12-31T04:10:39.330Z,5.6
2017-12-31T04:11:40.253Z,5.7
2017-12-31T04:12:40.297Z,5.63
2017-12-31T04:13:40.355Z,5.57
2017-12-31T04:14:40.020Z,5.57
2017-12-31T04:15:40.420Z,5.54
2017-12-31T04:16:40.489Z,5.55
2017-12-31T04:17:40.664Z,5.55
2017-12-31T04:18:40.691Z,5.6
2017-12-31T04:19:40.750Z,5.51
2017-12-31T04:20:40.974Z,5.46
2017-12-31T04:21:40.823Z,5.51
2017-12-31T04:22:40.741Z,5.48
2017-12-31T04:23:40.726Z,5.59
2017-12-31T04:24:41.362Z,5.55
2017-12-31T04:25:41.667Z,5.52
2017-12-31T04:26:41.372Z,5.49
2017-12-31T04:27:41.162Z,5.45
2017-12-31T04:28:41.901Z,5.44
2017-12-31T04:29:42.502Z,5.49
2017-12-31T04:30:42.667Z,5.42
2017-12-31T04:31:42.379Z,5.42
2017-12-31T04:32:42.422Z,5.37
2017-12-31T04:33:42.443Z,5.41
2017-12-31T04:34:42.467Z,5.41
2017-12-31T04:35:43.467Z,5.36
2017-12-31T04:36:42.457Z,5.33
2017-12-31T04:37:42.450Z,5.39
2017-12-31T04:38:42.471Z,5.36
2017-12-31T04:39:42.469Z,5.37
2017-12-31T04:40:42.536Z,5.37
2017-12-31T04:41:42.891Z,5.28
2017-12-31T04:42:42.607Z,5.3
2017-12-31T04:43:42.612Z,5.2
2017-12-31T04:44:42.909Z,5.2
2017-12-31T04:45:42.779Z,5.18
2017-12-31T04:46:43.262Z,5.2
2017-12-31T04:47:43.209Z,5.23
2017-12-31T04:48:43.052Z,5.18
2017-12-31T04:49:44.301Z,5.12
2017-12-31T04:50:43.250Z,5.1
2017-12-31T04:51:42.929Z,5.18
2017-12-31T04:52:43.243Z,5.21
2017-12-31T04:53:43.008Z,5.24
2017-12-31T04:54:43.430Z,5.28
2017-12-31T04:55:43.480Z,5.27
2017-12-31T04:56:43.684Z,5.37
2017-12-31T04:57:43.831Z,5.27
2017-12-31T04:58:43.587Z,5.33
2017-12-31T04:59:44.297Z,5.34
2017-12-31T05:01:13.847Z,5.24
2017-12-31T05:01:59.265Z,5.24
2017-12-31T05:02:59.423Z,5.24
2017-12-31T05:04:00.245Z,5.24
2017-12-31T05:05:00.433Z,5.24
2017-12-31T05:05:59.746Z,5.27
2017-12-31T05:06:59.886Z,5.24
2017-12-31T05:07:59.966Z,5.16
2017-12-31T05:09:00.163Z,5.1
2017-12-31T05:10:00.730Z,5.18
2017-12-31T05:11:00.271Z,5.05
2017-12-31T05:12:00.955Z,5.09
2017-12-31T05:13:01.095Z,5
2017-12-31T05:14:01.650Z,5.08
2017-12-31T05:15:01.360Z,5.02
2017-12-31T05:16:01.336Z,5.05
2017-12-31T05:17:01.410Z,5.08
2017-12-31T05:18:01.579Z,5.09
2017-12-31T05:19:01.713Z,5.15
2017-12-31T05:20:01.599Z,5.26
2017-12-31T05:21:01.969Z,5.18
2017-12-31T05:22:01.999Z,5.37
2017-12-31T05:23:02.326Z,5.33
2017-12-31T05:24:02.360Z,5.42
2017-12-31T05:25:02.131Z,5.45
2017-12-31T05:26:02.163Z,5.57
2017-12-31T05:27:02.661Z,5.7
2017-12-31T05:28:03.164Z,5.59
2017-12-31T05:29:02.824Z,5.78
2017-12-31T05:30:03.565Z,5.8
2017-12-31T05:31:02.668Z,5.77
2017-12-31T05:32:03.239Z,5.84
2017-12-31T05:33:03.533Z,5.87
2017-12-31T05:34:04.027Z,5.92
2017-12-31T05:35:03.506Z,5.99
2017-12-31T05:36:04.284Z,5.99
2017-12-31T05:37:04.401Z,6
2017-12-31T05:38:04.822Z,6.03
2017-12-31T05:39:05.190Z,6.09
2017-12-31T05:40:04.990Z,6.15
2017-12-31T05:41:05.101Z,6.1
2017-12-31T05:42:05.047Z,6.17
2017-12-31T05:43:06.197Z,6.1
2017-12-31T05:44:05.631Z,6.17
2017-12-31T05:45:05.092Z,6.14
2017-12-31T05:46:04.804Z,6.26
2017-12-31T05:47:05.191Z,6.24
2017-12-31T05:48:05.201Z,6.28
2017-12-31T05:49:05.617Z,6.25
2017-12-31T05:50:05.855Z,6.28
2017-12-31T05:51:05.819Z,6.28
2017-12-31T05:52:06.491Z,6.24
2017-12-31T05:53:06.376Z,6.24
2017-12-31T05:54:06.855Z,6.21
2017-12-31T05:55:07.078Z,6.25
2017-12-31T05:56:06.957Z,6.18
2017-12-31T05:57:07.271Z,6.24
2017-12-31T05:58:08.164Z,6.13
2017-12-31T05:59:08.032Z,6.06
2017-12-31T06:00:08.325Z,6.06
2017-12-31T06:01:07.873Z,5.87
2017-12-31T06:02:07.920Z,5.78
2017-12-31T06:03:07.577Z,5.84
2017-12-31T06:04:08.088Z,5.78
2017-12-31T06:05:08.448Z,5.7
2017-12-31T06:06:08.897Z,5.7
2017-12-31T06:07:08.802Z,5.57
2017-12-31T06:08:10.387Z,5.64
2017-12-31T06:09:10.995Z,5.59
2017-12-31T06:10:09.911Z,5.77
2017-12-31T06:11:10.039Z,5.72
2017-12-31T06:12:09.899Z,5.84
2017-12-31T06:13:09.653Z,5.82
2017-12-31T06:14:10.042Z,5.99
2017-12-31T06:15:09.884Z,6
2017-12-31T06:16:10.078Z,6.03
2017-12-31T06:17:09.944Z,5.98
2017-12-31T06:18:10.529Z,6.02
2017-12-31T06:19:10.816Z,6.07
2017-12-31T06:20:10.978Z,6.06
2017-12-31T06:21:11.016Z,6.2
2017-12-31T06:22:11.758Z,6.18
2017-12-31T06:23:11.154Z,6.18
2017-12-31T06:24:11.465Z,6.26
2017-12-31T06:25:11.525Z,6.2
2017-12-31T06:26:11.971Z,6.21
2017-12-31T06:27:12.092Z,6.39
2017-12-31T06:28:12.796Z,6.37
2017-12-31T06:29:12.755Z,6.37
2017-12-31T06:30:12.566Z,6.46
2017-12-31T06:31:12.919Z,6.42
2017-12-31T06:32:12.993Z,6.4
2017-12-31T06:33:12.983Z,6.37
2017-12-31T06:34:14.196Z,6.44
2017-12-31T06:35:13.601Z,6.47
2017-12-31T06:36:13.175Z,6.51
2017-12-31T06:37:13.461Z,6.51
2017-12-31T06:38:13.450Z,6.54
2017-12-31T06:39:13.705Z,6.51
2017-12-31T06:40:13.851Z,6.49
2017-12-31T06:41:14.233Z,6.54
2017-12-31T06:42:13.884Z,6.52
2017-12-31T06:43:14.098Z,6.6
2017-12-31T06:44:14.227Z,6.58
2017-12-31T06:45:14.071Z,6.58
2017-12-31T06:46:14.053Z,6.58
2017-12-31T06:47:14.409Z,6.62
2017-12-31T06:48:15.101Z,6.61
2017-12-31T06:49:14.896Z,6.67
2017-12-31T06:50:14.622Z,6.67
2017-12-31T06:51:15.390Z,6.72
2017-12-31T06:52:15.354Z,6.65
2017-12-31T06:53:15.229Z,6.65
2017-12-31T06:54:15.527Z,6.67
2017-12-31T06:55:15.462Z,6.67
2017-12-31T06:56:15.853Z,6.73
2017-12-31T06:57:15.948Z,6.7
2017-12-31T06:58:15.894Z,6.79
2017-12-31T06:59:16.059Z,6.73
2017-12-31T07:00:21.132Z,6.76
2017-12-31T07:01:21.047Z,6.75
2017-12-31T07:02:21.617Z,6.78
2017-12-31T07:03:21.405Z,6.68
2017-12-31T07:04:21.374Z,6.79
2017-12-31T07:05:21.599Z,6.72
2017-12-31T07:06:21.392Z,6.79
2017-12-31T07:07:21.497Z,6.75
2017-12-31T07:08:21.422Z,6.72
2017-12-31T07:09:21.880Z,6.72
2017-12-31T07:10:22.252Z,6.78
2017-12-31T07:11:22.321Z,6.72
2017-12-31T07:12:21.773Z,6.6
2017-12-31T07:13:22.638Z,6.7
2017-12-31T07:14:22.077Z,6.67
2017-12-31T07:15:21.988Z,6.67
2017-12-31T07:16:22.141Z,6.72
2017-12-31T07:17:21.925Z,6.72
2017-12-31T07:18:22.113Z,6.72
2017-12-31T07:19:22.442Z,6.72
2017-12-31T07:20:23.119Z,6.75
2017-12-31T07:21:23.888Z,6.76
2017-12-31T07:22:23.669Z,6.78
2017-12-31T07:23:23.441Z,6.73
2017-12-31T07:24:23.182Z,6.82
2017-12-31T07:25:23.423Z,6.78
2017-12-31T07:26:24.308Z,6.79
2017-12-31T07:27:23.849Z,6.86
2017-12-31T07:28:23.321Z,6.9
2017-12-31T07:29:23.384Z,6.85
2017-12-31T07:30:23.107Z,6.94
2017-12-31T07:31:23.395Z,6.98
2017-12-31T07:32:23.184Z,6.98
2017-12-31T07:33:23.557Z,7.08
2017-12-31T07:34:23.398Z,7.03
2017-12-31T07:35:24.210Z,6.94
2017-12-31T07:36:23.319Z,7
2017-12-31T07:37:23.509Z,7.08
2017-12-31T07:38:23.661Z,7.03
2017-12-31T07:39:23.524Z,7
2017-12-31T07:40:23.438Z,7.01
2017-12-31T07:41:23.858Z,7.09
2017-12-31T07:42:23.662Z,7.08
2017-12-31T07:43:23.692Z,7.11
2017-12-31T07:44:24.295Z,7.11
2017-12-31T07:45:23.995Z,7.13
2017-12-31T07:46:25.185Z,7.13
2017-12-31T07:47:24.994Z,7.21
2017-12-31T07:48:24.949Z,7.23
2017-12-31T07:49:24.893Z,7.33
2017-12-31T07:50:25.967Z,7.29
2017-12-31T07:51:25.336Z,7.37
2017-12-31T07:52:25.188Z,7.31
2017-12-31T07:53:25.986Z,7.34
2017-12-31T07:54:26.335Z,7.29
2017-12-31T07:55:27.107Z,7.37
2017-12-31T07:56:26.581Z,7.36
2017-12-31T07:57:26.608Z,7.37
2017-12-31T07:58:26.553Z,7.36
2017-12-31T07:59:26.618Z,7.31
2017-12-31T08:00:26.686Z,7.33
2017-12-31T08:01:26.980Z,7.4
2017-12-31T08:02:26.148Z,7.37
2017-12-31T08:03:26.572Z,7.39
2017-12-31T08:04:26.908Z,7.39
2017-12-31T08:05:27.893Z,7.37
2017-12-31T08:06:27.943Z,7.39
2017-12-31T08:07:27.549Z,7.39
2017-12-31T08:08:27.979Z,7.55
2017-12-31T08:09:28.167Z,7.41
2017-12-31T08:10:28.620Z,7.4
2017-12-31T08:11:29.103Z,7.47
2017-12-31T08:12:28.643Z,7.48
2017-12-31T08:13:29.158Z,7.41
2017-12-31T08:14:28.884Z,7.36
2017-12-31T08:15:28.639Z,7.39
2017-12-31T08:16:29.880Z,7.44
2017-12-31T08:17:29.245Z,7.45
2017-12-31T08:18:29.516Z,7.36
2017-12-31T08:19:29.907Z,7.41
2017-12-31T08:20:30.071Z,7.52
2017-12-31T08:21:29.843Z,7.44
2017-12-31T08:22:30.463Z,7.56
2017-12-31T08:23:30.904Z,7.49
2017-12-31T08:24:30.762Z,7.47
2017-12-31T08:25:31.807Z,7.61
2017-12-31T08:26:31.545Z,7.55
2017-12-31T08:27:31.875Z,7.52
2017-12-31T08:28:32.304Z,7.63
2017-12-31T08:29:32.348Z,7.71
2017-12-31T08:30:32.180Z,7.73
2017-12-31T08:31:32.152Z,7.52
2017-12-31T08:32:33.582Z,7.67
2017-12-31T08:33:34.218Z,7.63
2017-12-31T08:34:32.259Z,7.67
2017-12-31T08:35:33.055Z,7.64
2017-12-31T08:36:33.412Z,7.68
2017-12-31T08:37:33.533Z,7.61
2017-12-31T08:38:33.798Z,7.59
2017-12-31T08:39:33.744Z,7.63
2017-12-31T08:40:33.861Z,7.68
2017-12-31T08:41:34.012Z,7.7
2017-12-31T08:42:34.458Z,7.74
2017-12-31T08:43:34.535Z,7.75
2017-12-31T08:44:34.541Z,7.73
2017-12-31T08:45:34.507Z,7.71
2017-12-31T08:46:34.650Z,7.83
2017-12-31T08:47:34.841Z,7.86
2017-12-31T08:48:35.113Z,7.85
2017-12-31T08:49:35.186Z,7.93
2017-12-31T08:50:35.143Z,7.95
2017-12-31T08:51:35.329Z,7.92
2017-12-31T08:52:35.573Z,8.01
2017-12-31T08:53:35.917Z,8.01
2017-12-31T08:54:35.370Z,7.88
2017-12-31T08:55:35.807Z,8.01
2017-12-31T08:56:36.052Z,7.88
2017-12-31T08:57:35.914Z,8.01
2017-12-31T08:58:35.695Z,7.95
2017-12-31T08:59:35.921Z,8.01
2017-12-31T09:00:36.127Z,8.06
2017-12-31T09:01:36.179Z,8.03
2017-12-31T09:02:36.658Z,7.98
2017-12-31T09:03:36.175Z,8.01
2017-12-31T09:04:36.241Z,8.06
2017-12-31T09:05:36.846Z,8.1
2017-12-31T09:06:36.785Z,8.06
2017-12-31T09:07:36.912Z,8.07
2017-12-31T09:08:36.925Z,8.03
2017-12-31T09:09:36.657Z,7.99
2017-12-31T09:10:37.024Z,8.06
2017-12-31T09:11:37.059Z,7.96
2017-12-31T09:12:36.790Z,7.99
2017-12-31T09:13:37.288Z,8.01
2017-12-31T09:14:37.285Z,8.04
2017-12-31T09:15:37.949Z,7.99
2017-12-31T09:16:37.089Z,7.96
2017-12-31T09:17:37.818Z,7.93
2017-12-31T09:18:37.729Z,8.11
2017-12-31T09:19:38.099Z,8.03
2017-12-31T09:20:38.611Z,8.01
2017-12-31T09:21:39.036Z,7.98
2017-12-31T09:22:38.868Z,8.01
2017-12-31T09:23:39.034Z,8.03
2017-12-31T09:24:39.148Z,8.14
2017-12-31T09:25:39.609Z,8.16
2017-12-31T09:26:39.613Z,8.14
2017-12-31T09:27:39.933Z,8.13
2017-12-31T09:28:39.996Z,8.13
2017-12-31T09:29:39.412Z,8.1
2017-12-31T09:30:41.034Z,8.13
2017-12-31T09:31:40.230Z,8.25
2017-12-31T09:32:40.396Z,8.21
2017-12-31T09:33:40.888Z,8.25
2017-12-31T09:34:41.324Z,8.17
2017-12-31T09:35:41.229Z,8.14
2017-12-31T09:36:41.463Z,8.21
2017-12-31T09:37:41.994Z,8.28
2017-12-31T09:38:41.759Z,8.16
2017-12-31T09:39:41.759Z,8.19
2017-12-31T09:40:41.878Z,8.21
2017-12-31T09:41:42.413Z,8.17
2017-12-31T09:42:42.095Z,8.14
2017-12-31T09:43:42.752Z,8.14
2017-12-31T09:44:42.977Z,8.19
2017-12-31T09:45:43.488Z,8.14
2017-12-31T09:46:43.465Z,8.16
2017-12-31T09:47:43.678Z,8.1
2017-12-31T09:48:44.118Z,8.16
2017-12-31T09:49:44.235Z,8.19
2017-12-31T09:50:43.737Z,8.17
2017-12-31T09:51:44.302Z,8.19
2017-12-31T09:52:44.900Z,8.1
2017-12-31T09:53:44.457Z,8.16
2017-12-31T09:54:44.455Z,8.16
2017-12-31T09:55:44.846Z,8.16
2017-12-31T09:56:45.173Z,8.14
2017-12-31T09:57:45.412Z,8.1
2017-12-31T09:58:45.767Z,8.16
2017-12-31T09:59:45.768Z,8.13
2017-12-31T10:00:45.531Z,8.14
2017-12-31T10:01:45.281Z,8.14
2017-12-31T10:02:45.709Z,8.19
2017-12-31T10:03:45.975Z,8.17
2017-12-31T10:04:45.636Z,8.1
2017-12-31T10:05:46.058Z,8.13
2017-12-31T10:06:45.680Z,8.14
2017-12-31T10:07:45.878Z,8.25
2017-12-31T10:08:46.425Z,8.24
2017-12-31T10:09:46.049Z,8.25
2017-12-31T10:10:47.292Z,8.26
2017-12-31T10:11:46.339Z,8.24
2017-12-31T10:12:46.695Z,8.26
2017-12-31T10:13:47.085Z,8.28
2017-12-31T10:14:46.855Z,8.25
2017-12-31T10:15:47.234Z,8.36
2017-12-31T10:16:47.346Z,8.29
2017-12-31T10:17:47.798Z,8.32
2017-12-31T10:18:47.499Z,8.35
2017-12-31T10:19:48.135Z,8.35
2017-12-31T10:20:47.971Z,8.36
2017-12-31T10:21:48.298Z,8.35
2017-12-31T10:22:48.748Z,8.44
2017-12-31T10:23:48.736Z,8.5
2017-12-31T10:24:49.053Z,8.5
2017-12-31T10:25:49.446Z,8.44
2017-12-31T10:26:49.562Z,8.58
2017-12-31T10:27:50.003Z,8.6
2017-12-31T10:28:49.734Z,8.58
2017-12-31T10:29:50.251Z,8.6
2017-12-31T10:30:50.500Z,8.6
2017-12-31T10:31:51.529Z,8.62
2017-12-31T10:32:50.432Z,8.6
2017-12-31T10:33:50.352Z,8.61
2017-12-31T10:34:50.341Z,8.71
2017-12-31T10:35:50.966Z,8.71
2017-12-31T10:36:50.613Z,8.76
2017-12-31T10:37:51.349Z,8.79
2017-12-31T10:38:51.223Z,8.77
2017-12-31T10:39:51.913Z,8.87
2017-12-31T10:40:51.745Z,8.8
2017-12-31T10:41:51.954Z,8.85
2017-12-31T10:42:53.059Z,8.82
2017-12-31T10:43:51.738Z,8.87
2017-12-31T10:44:52.043Z,8.89
2017-12-31T10:45:52.490Z,8.97
2017-12-31T10:46:52.254Z,8.95
2017-12-31T10:47:52.229Z,9.03
2017-12-31T10:48:52.780Z,9.01
2017-12-31T10:49:52.943Z,9.08
2017-12-31T10:50:53.189Z,9.12
2017-12-31T10:51:53.341Z,9.21
2017-12-31T10:52:53.272Z,9.3
2017-12-31T10:53:52.816Z,9.52
2017-12-31T10:54:53.669Z,9.62
2017-12-31T10:55:53.089Z,9.74
2017-12-31T10:56:53.088Z,9.77
2017-12-31T10:57:53.741Z,9.74
2017-12-31T10:58:53.971Z,9.75
2017-12-31T10:59:54.254Z,9.72
2017-12-31T11:00:54.147Z,9.66
2017-12-31T11:01:54.032Z,9.59
2017-12-31T11:02:54.662Z,9.59
2017-12-31T11:03:54.177Z,9.59
2017-12-31T11:04:54.671Z,9.64
2017-12-31T11:05:54.942Z,9.72
2017-12-31T11:06:54.717Z,9.75
2017-12-31T11:07:55.441Z,9.72
2017-12-31T11:08:55.188Z,9.74
2017-12-31T11:09:55.176Z,9.81
2017-12-31T11:10:55.505Z,9.72
2017-12-31T11:11:56.060Z,9.77
2017-12-31T11:12:55.851Z,9.78
2017-12-31T11:13:55.618Z,9.75
2017-12-31T11:14:56.230Z,9.72
2017-12-31T11:15:56.143Z,9.77
2017-12-31T11:16:55.916Z,9.88
2017-12-31T11:17:56.456Z,9.75
2017-12-31T11:18:56.341Z,9.8
2017-12-31T11:19:57.089Z,9.8
2017-12-31T11:20:56.868Z,9.81
2017-12-31T11:21:57.084Z,9.78
2017-12-31T11:22:57.368Z,9.78
2017-12-31T11:23:57.305Z,9.8
2017-12-31T11:24:57.060Z,9.82
2017-12-31T11:25:57.492Z,9.81
2017-12-31T11:26:57.898Z,9.85
2017-12-31T11:27:57.946Z,9.81
2017-12-31T11:28:57.955Z,9.84
2017-12-31T11:29:57.969Z,9.89
2017-12-31T11:30:58.810Z,9.85
2017-12-31T11:31:58.040Z,9.89
2017-12-31T11:32:58.652Z,9.95
2017-12-31T11:33:59.132Z,10.08
2017-12-31T11:34:59.324Z,10.1
2017-12-31T11:35:59.702Z,10.03
2017-12-31T11:36:59.546Z,10.05
2017-12-31T11:37:58.963Z,10.08
2017-12-31T11:38:59.397Z,10.07
2017-12-31T11:39:59.302Z,10.1
2017-12-31T11:40:59.081Z,9.96
2017-12-31T11:41:58.649Z,10.02
2017-12-31T11:42:58.724Z,10.05
2017-12-31T11:43:58.493Z,9.98
2017-12-31T11:44:59.493Z,9.96
2017-12-31T11:45:59.539Z,9.92
2017-12-31T11:47:00.044Z,9.96
2017-12-31T11:47:59.735Z,9.98
2017-12-31T11:48:59.600Z,10.02
2017-12-31T11:49:59.364Z,9.92
2017-12-31T11:50:59.619Z,10.05
2017-12-31T11:51:59.457Z,10.11
2017-12-31T11:52:59.947Z,10.2
2017-12-31T11:53:59.694Z,10.07
2017-12-31T11:55:00.043Z,10.2
2017-12-31T11:56:00.120Z,10.25
2017-12-31T11:57:01.683Z,10.29
2017-12-31T11:58:01.608Z,10.35
2017-12-31T11:59:01.824Z,10.35
2017-12-31T12:01:01.732Z,10.39
2017-12-31T12:02:01.553Z,10.55
2017-12-31T12:03:01.108Z,10.46
2017-12-31T12:04:02.588Z,10.51
2017-12-31T12:05:02.879Z,10.58
2017-12-31T12:06:02.748Z,10.61
2017-12-31T12:07:02.426Z,10.54
2017-12-31T12:08:01.672Z,10.67
2017-12-31T12:09:01.591Z,10.69
2017-12-31T12:10:02.409Z,10.67
2017-12-31T12:11:02.205Z,10.67
2017-12-31T12:12:03.592Z,10.87
2017-12-31T12:13:02.382Z,10.85
2017-12-31T12:14:02.643Z,10.94
2017-12-31T12:15:02.782Z,11.05
2017-12-31T12:16:03.687Z,11
2017-12-31T12:17:02.538Z,11.03
2017-12-31T12:18:02.910Z,11.1
2017-12-31T12:19:02.516Z,11.09
2017-12-31T12:20:04.068Z,11.16
2017-12-31T12:21:02.940Z,11.15
2017-12-31T12:22:02.910Z,11.2
2017-12-31T12:23:02.763Z,11.15
2017-12-31T12:24:03.216Z,11.3
2017-12-31T12:25:02.438Z,11.27
2017-12-31T12:26:02.735Z,11.27
2017-12-31T12:27:03.345Z,11.28
2017-12-31T12:28:03.459Z,11.24
2017-12-31T12:29:03.794Z,11.27
2017-12-31T12:30:03.605Z,11.27
2017-12-31T12:31:03.934Z,11.23
2017-12-31T12:32:03.776Z,11.21
2017-12-31T12:33:03.717Z,11.13
2017-12-31T12:34:03.776Z,11.16
2017-12-31T12:35:03.590Z,11.18
2017-12-31T12:36:03.522Z,11.13
2017-12-31T12:37:03.684Z,11.16
2017-12-31T12:38:04.159Z,11.16
2017-12-31T12:39:04.147Z,11.18
2017-12-31T12:40:03.562Z,11.13
2017-12-31T12:41:04.122Z,11.16
2017-12-31T12:42:03.626Z,11.18
2017-12-31T12:43:04.506Z,11.16
2017-12-31T12:44:04.129Z,11.12
2017-12-31T12:45:04.927Z,11.15
2017-12-31T12:46:04.036Z,11.13
2017-12-31T12:47:05.209Z,11.15
2017-12-31T12:48:04.745Z,11.15
2017-12-31T12:49:04.518Z,11.08
2017-12-31T12:50:05.297Z,11.06
2017-12-31T12:51:05.222Z,11.08
2017-12-31T12:52:05.134Z,11.1
2017-12-31T12:53:05.196Z,11.06
2017-12-31T12:54:05.067Z,11.16
2017-12-31T12:55:05.458Z,11.09
2017-12-31T12:56:06.120Z,11.18
2017-12-31T12:57:06.198Z,11.13
2017-12-31T12:58:06.482Z,11.1
2017-12-31T12:59:06.326Z,11.13
2017-12-31T13:00:06.937Z,11.21
2017-12-31T13:01:06.557Z,11.21
2017-12-31T13:02:06.705Z,11.16
2017-12-31T13:03:07.093Z,11.16
2017-12-31T13:04:07.047Z,11.21
2017-12-31T13:05:07.825Z,11.2
2017-12-31T13:06:07.867Z,11.18
2017-12-31T13:07:07.430Z,11.21
2017-12-31T13:08:07.403Z,11.1
2017-12-31T13:09:07.162Z,11.12
2017-12-31T13:10:07.767Z,11.2
2017-12-31T13:11:07.509Z,11.2
2017-12-31T13:12:07.781Z,11.15
2017-12-31T13:13:07.718Z,11.2
2017-12-31T13:14:08.462Z,11.2
2017-12-31T13:15:09.144Z,11.24
2017-12-31T13:16:09.027Z,11.21
2017-12-31T13:17:09.350Z,11.16
2017-12-31T13:18:09.266Z,11.16
2017-12-31T13:19:09.721Z,11.09
2017-12-31T13:20:11.067Z,11.06
2017-12-31T13:21:09.758Z,11.12
2017-12-31T13:22:10.074Z,11.06
2017-12-31T13:23:10.311Z,11.02